Stonyfork, Pennsylvania
Current Conditions -  °F | °C
As of 3:15 AM on Friday 24 Oct 2014 (Local Time) from KN38 Reporting Station
Overcast Overcast  
Wind Chill: 44°   Ceiling: 2100
Heat Index: 48°   Visibility: 10mi
Dew Point: 41°   Wind: 9mph
Humidity: 76%   Direction: 310°NW
Pressure: 29.97"   Gusts: 17mph
Location:  41.7308°N, 77.349°W
Report Text: KN38 240715Z AUTO 31008G15KT 10SM OVC021 09/05 A2997 RMK AO2
Loading
Personal Weather Stations






























Interactive Weather Map
Tropical Storm Tracking
New forecast layout! Learn more

10-Day Weather Forecast

Advertisements
Track Severe Weather on mobile